createdAt,value
2022-12-06T00:01:22.290Z,29.97
2022-12-06T00:03:54.453Z,29.23
2022-12-06T00:06:23.609Z,32.05
2022-12-06T00:08:51.609Z,26.55
2022-12-06T00:11:24.084Z,27.77
2022-12-06T00:13:59.679Z,22.45
2022-12-06T00:16:27.258Z,21.38
2022-12-06T00:18:54.701Z,19.42
2022-12-06T00:21:30.333Z,19.27
2022-12-06T00:24:08.960Z,22.53
2022-12-06T00:26:37.436Z,21.50
2022-12-06T00:29:04.901Z,24.60
2022-12-06T00:31:33.026Z,24.02
2022-12-06T00:34:00.076Z,25.83
2022-12-06T00:36:35.516Z,26.65
2022-12-06T00:39:08.735Z,25.45
2022-12-06T00:41:35.952Z,27.60
2022-12-06T00:44:02.859Z,30.25
2022-12-06T00:46:31.203Z,31.02
2022-12-06T00:49:06.345Z,28.65
2022-12-06T00:51:34.511Z,26.33
2022-12-06T00:54:01.277Z,25.30
2022-12-06T00:56:28.041Z,24.60
2022-12-06T00:58:55.094Z,25.83
2022-12-06T01:01:24.494Z,25.70
2022-12-06T01:03:54.438Z,25.45
2022-12-06T01:06:27.471Z,26.10
2022-12-06T01:08:58.987Z,28.23
2022-12-06T01:11:26.893Z,27.30
2022-12-06T01:13:53.738Z,29.67
2022-12-06T01:16:26.746Z,30.97
2022-12-06T01:18:55.546Z,31.13
2022-12-06T01:21:22.919Z,35.20
2022-12-06T01:23:49.942Z,45.05
2022-12-06T01:26:20.146Z,27.43
2022-12-06T01:28:47.728Z,28.63
2022-12-06T01:31:16.061Z,27.15
2022-12-06T01:33:43.782Z,26.50
2022-12-06T01:36:17.442Z,26.20
2022-12-06T01:38:44.343Z,27.17
2022-12-06T01:41:10.992Z,26.80
2022-12-06T01:43:47.831Z,27.30
2022-12-06T01:46:38.992Z,26.90
2022-12-06T01:49:12.356Z,46.80
2022-12-06T01:51:42.940Z,38.17
2022-12-06T01:54:13.219Z,15.87
2022-12-06T01:56:40.438Z,14.37
2022-12-06T01:59:08.305Z,12.20
2022-12-06T02:01:36.040Z,12.27
2022-12-06T02:04:03.267Z,12.13
2022-12-06T02:06:32.092Z,11.87
2022-12-06T02:09:01.190Z,12.50
2022-12-06T02:11:33.534Z,11.37
2022-12-06T02:14:05.776Z,11.17
2022-12-06T02:17:00.206Z,9.13
2022-12-06T02:19:38.932Z,9.37
2022-12-06T02:22:12.767Z,8.80
2022-12-06T02:24:50.038Z,9.93
2022-12-06T02:27:29.783Z,11.13
2022-12-06T02:30:09.617Z,13.20
2022-12-06T02:32:39.265Z,12.33
2022-12-06T02:35:15.782Z,10.03
2022-12-06T02:37:53.721Z,10.70
2022-12-06T02:40:26.206Z,12.03
2022-12-06T02:43:04.848Z,10.03
2022-12-06T02:45:37.972Z,7.93
2022-12-06T02:48:07.336Z,8.47
2022-12-06T02:50:40.647Z,9.73
2022-12-06T02:53:12.762Z,11.67
2022-12-06T02:55:41.322Z,11.13
2022-12-06T02:58:08.166Z,12.50
2022-12-06T03:00:38.633Z,9.63
2022-12-06T03:03:39.180Z,9.10
2022-12-06T03:06:14.792Z,8.73
2022-12-06T03:09:00.012Z,8.90
2022-12-06T03:11:33.872Z,10.43
2022-12-06T03:14:04.013Z,10.47
2022-12-06T03:16:43.371Z,9.87
2022-12-06T03:19:29.669Z,8.93
2022-12-06T03:22:01.396Z,9.70
2022-12-06T03:24:30.914Z,9.97
2022-12-06T03:27:00.687Z,10.73
2022-12-06T03:29:31.760Z,12.90
2022-12-06T03:32:02.971Z,10.73
2022-12-06T03:34:43.822Z,11.53
2022-12-06T03:37:15.453Z,11.90
2022-12-06T03:39:49.848Z,9.63
2022-12-06T03:42:18.807Z,7.90
2022-12-06T03:44:47.474Z,9.53
2022-12-06T03:47:55.403Z,9.93
2022-12-06T03:50:30.306Z,11.43
2022-12-06T03:55:23.562Z,14.20
2022-12-06T03:57:50.229Z,12.43
2022-12-06T04:00:17.196Z,12.20
2022-12-06T04:02:43.881Z,12.63
2022-12-06T04:05:11.233Z,20.67
2022-12-06T04:07:38.034Z,18.17
2022-12-06T04:10:06.019Z,17.40
2022-12-06T04:12:53.340Z,14.80
2022-12-06T04:15:23.203Z,13.67
2022-12-06T04:18:08.659Z,15.00
2022-12-06T04:20:54.087Z,14.50
2022-12-06T04:23:21.736Z,13.73
2022-12-06T04:25:48.589Z,14.03
2022-12-06T04:28:34.534Z,14.63
2022-12-06T04:31:22.405Z,14.80
2022-12-06T04:34:08.894Z,87.70
2022-12-06T04:36:57.831Z,15.85
2022-12-06T04:39:24.984Z,15.80
2022-12-06T04:42:10.208Z,15.13
2022-12-06T04:44:37.103Z,15.27
2022-12-06T04:47:04.935Z,18.60
2022-12-06T04:49:31.801Z,23.03
2022-12-06T04:51:58.433Z,26.67
2022-12-06T04:54:25.608Z,26.60
2022-12-06T04:56:53.161Z,26.90
2022-12-06T04:59:20.428Z,25.43
2022-12-06T05:01:47.195Z,21.20
2022-12-06T05:04:14.197Z,27.10
2022-12-06T05:06:40.927Z,20.13
2022-12-06T05:09:07.583Z,19.93
2022-12-06T05:11:34.309Z,18.07
2022-12-06T05:14:01.253Z,20.87
2022-12-06T05:16:28.133Z,21.50
2022-12-06T05:18:55.139Z,23.53
2022-12-06T05:21:24.223Z,21.83
2022-12-06T05:23:54.480Z,21.93
2022-12-06T05:26:23.857Z,22.55
2022-12-06T05:28:51.119Z,26.27
2022-12-06T05:31:19.215Z,47.10
2022-12-06T05:33:46.005Z,42.23
2022-12-06T05:36:19.124Z,32.53
2022-12-06T05:38:51.291Z,34.27
2022-12-06T05:41:20.953Z,37.73
2022-12-06T05:43:47.630Z,40.43
2022-12-06T05:46:14.726Z,37.17
2022-12-06T05:48:41.434Z,26.73
2022-12-06T05:51:08.282Z,26.53
2022-12-06T05:53:35.176Z,24.90
2022-12-06T05:56:06.806Z,25.63
2022-12-06T05:58:33.668Z,25.60
2022-12-06T06:01:00.343Z,20.93
2022-12-06T06:03:27.139Z,21.63
2022-12-06T06:05:57.897Z,20.90
2022-12-06T06:08:24.886Z,20.87
2022-12-06T06:10:52.808Z,20.17
2022-12-06T06:13:19.743Z,22.57
2022-12-06T06:15:47.820Z,23.03
2022-12-06T06:18:15.445Z,26.93
2022-12-06T06:20:42.158Z,27.43
2022-12-06T06:23:08.877Z,30.50
2022-12-06T06:25:35.557Z,30.60
2022-12-06T06:28:02.220Z,30.43
2022-12-06T06:30:28.918Z,31.97
2022-12-06T06:32:55.808Z,33.07
2022-12-06T06:35:22.579Z,32.28
2022-12-06T06:37:49.875Z,32.58
2022-12-06T06:40:16.562Z,33.43
2022-12-06T06:42:43.277Z,33.53
2022-12-06T06:45:10.468Z,34.08
2022-12-06T06:47:37.204Z,36.87
2022-12-06T06:50:04.704Z,38.77
2022-12-06T06:52:31.380Z,40.97
2022-12-06T06:54:58.073Z,41.85
2022-12-06T06:57:25.099Z,38.87
2022-12-06T06:59:51.793Z,31.05
2022-12-06T07:02:19.292Z,33.75
2022-12-06T07:04:45.963Z,31.23
2022-12-06T07:07:17.820Z,31.58
2022-12-06T07:09:48.054Z,29.08
2022-12-06T07:12:15.477Z,28.70
2022-12-06T07:14:42.217Z,27.35
2022-12-06T07:17:08.910Z,20.85
2022-12-06T07:19:35.691Z,22.95
2022-12-06T07:22:02.450Z,29.17
2022-12-06T07:24:29.263Z,37.88
2022-12-06T07:26:57.410Z,31.20
2022-12-06T07:29:24.043Z,28.42
2022-12-06T07:31:50.833Z,26.67
2022-12-06T07:34:17.474Z,29.50
2022-12-06T07:36:44.191Z,32.75
2022-12-06T07:39:14.772Z,36.33
2022-12-06T07:42:00.796Z,36.65
2022-12-06T07:44:46.099Z,36.25
2022-12-06T07:47:12.901Z,36.55
2022-12-06T07:49:40.187Z,32.70
2022-12-06T07:52:08.071Z,23.13
2022-12-06T07:54:34.809Z,20.02
2022-12-06T07:57:01.661Z,21.52
2022-12-06T07:59:28.376Z,18.50
2022-12-06T08:01:55.162Z,19.38
2022-12-06T08:04:22.075Z,16.27
2022-12-06T08:06:48.801Z,16.83
2022-12-06T08:09:15.526Z,16.17
2022-12-06T08:11:42.310Z,7.50
2022-12-06T08:14:10.877Z,10.93
2022-12-06T08:16:37.573Z,17.85
2022-12-06T08:19:04.763Z,16.70
2022-12-06T08:21:31.434Z,15.00
2022-12-06T08:23:58.196Z,32.10
2022-12-06T08:26:25.117Z,13.77
2022-12-06T08:28:52.066Z,7.97
2022-12-06T08:31:21.925Z,10.00
2022-12-06T08:33:49.172Z,7.43
2022-12-06T08:36:19.078Z,6.60
2022-12-06T08:38:46.423Z,6.80
2022-12-06T08:41:32.212Z,4.75
2022-12-06T08:44:00.919Z,9.55
2022-12-06T08:46:28.949Z,3.95
2022-12-06T08:48:56.013Z,4.88
2022-12-06T08:51:23.131Z,5.03
2022-12-06T08:53:49.923Z,3.50
2022-12-06T08:56:16.553Z,4.32
2022-12-06T08:58:43.342Z,5.20
2022-12-06T09:01:22.556Z,3.88
2022-12-06T09:03:49.558Z,5.97
2022-12-06T09:06:17.313Z,8.80
2022-12-06T09:08:45.000Z,10.10
2022-12-06T09:11:12.431Z,5.25
2022-12-06T09:13:39.674Z,5.53
2022-12-06T09:16:14.502Z,4.55
2022-12-06T09:18:41.925Z,5.28
2022-12-06T09:21:14.277Z,4.20
2022-12-06T09:23:41.523Z,11.25
2022-12-06T09:26:08.613Z,8.00
2022-12-06T09:28:38.039Z,6.47
2022-12-06T09:31:05.877Z,6.85
2022-12-06T09:33:33.283Z,6.90
2022-12-06T09:36:05.543Z,11.48
2022-12-06T09:38:36.467Z,6.45
2022-12-06T09:41:40.617Z,6.80
2022-12-06T09:44:25.932Z,7.35
2022-12-06T09:47:21.570Z,6.13
2022-12-06T09:50:00.724Z,6.13
2022-12-06T09:52:55.336Z,6.65
2022-12-06T09:55:38.001Z,8.25
2022-12-06T09:58:29.705Z,7.90
2022-12-06T10:01:13.434Z,6.65
2022-12-06T10:03:42.877Z,4.22
2022-12-06T10:06:13.770Z,2.20
2022-12-06T10:09:11.111Z,3.47
2022-12-06T10:12:07.093Z,1.88
2022-12-06T10:15:00.781Z,2.20
2022-12-06T10:17:58.328Z,4.38
2022-12-06T10:20:50.154Z,14.32
2022-12-06T10:23:39.566Z,19.95
2022-12-06T10:26:25.335Z,3.85
2022-12-06T10:29:13.837Z,4.15
2022-12-06T10:32:19.395Z,1.52
2022-12-06T10:34:59.614Z,3.58
2022-12-06T10:37:51.452Z,4.68
2022-12-06T10:40:49.102Z,3.88
2022-12-06T10:43:23.789Z,2.08
2022-12-06T10:46:21.818Z,2.47
2022-12-06T10:48:54.139Z,1.13
2022-12-06T10:51:30.294Z,1.80
2022-12-06T10:54:09.096Z,1.70
2022-12-06T10:56:40.956Z,3.47
2022-12-06T10:59:13.384Z,1.95
2022-12-06T11:01:43.309Z,4.72
2022-12-06T11:04:36.891Z,4.90
2022-12-06T11:07:16.739Z,2.00
2022-12-06T11:09:47.546Z,9.25
2022-12-06T11:12:34.090Z,4.20
2022-12-06T11:15:21.467Z,2.13
2022-12-06T11:18:03.276Z,3.40
2022-12-06T11:20:34.821Z,2.15
2022-12-06T11:23:27.244Z,3.90
2022-12-06T11:26:31.664Z,2.13
2022-12-06T11:29:07.137Z,4.25
2022-12-06T11:31:41.824Z,2.60
2022-12-06T11:34:50.545Z,2.00
2022-12-06T11:37:20.204Z,5.07
2022-12-06T11:39:49.699Z,2.90
2022-12-06T11:42:21.477Z,3.85
2022-12-06T11:44:56.599Z,3.17
2022-12-06T11:47:24.112Z,2.78
2022-12-06T11:49:55.309Z,2.10
2022-12-06T11:52:42.066Z,3.67
2022-12-06T11:55:21.925Z,1.60
2022-12-06T11:57:51.244Z,2.25
2022-12-06T12:00:23.964Z,2.10
2022-12-06T12:02:54.143Z,1.70
2022-12-06T12:05:21.126Z,2.35
2022-12-06T12:08:05.118Z,2.15
2022-12-06T12:10:40.828Z,1.30
2022-12-06T12:13:39.904Z,1.35
2022-12-06T12:16:20.964Z,1.75
2022-12-06T12:18:52.525Z,6.22
2022-12-06T12:21:39.577Z,2.50
2022-12-06T12:24:27.259Z,3.08
2022-12-06T12:26:54.063Z,2.55
2022-12-06T12:29:22.158Z,3.00
2022-12-06T12:31:55.655Z,3.83
2022-12-06T12:34:22.349Z,3.22
2022-12-06T12:36:53.104Z,2.80
2022-12-06T12:39:44.655Z,3.20
2022-12-06T12:42:40.087Z,3.72
2022-12-06T12:45:19.379Z,2.75
2022-12-06T12:48:23.228Z,2.28
2022-12-06T12:50:55.532Z,3.28
2022-12-06T12:53:44.938Z,3.05
2022-12-06T12:56:17.875Z,2.53
2022-12-06T12:58:48.111Z,3.75
2022-12-06T13:01:30.030Z,4.95
2022-12-06T13:04:04.193Z,3.40
2022-12-06T13:06:55.232Z,5.03
2022-12-06T13:09:33.548Z,4.95
2022-12-06T13:12:06.817Z,4.28
2022-12-06T13:14:35.681Z,3.53
2022-12-06T13:17:07.470Z,3.22
2022-12-06T13:19:39.321Z,4.03
2022-12-06T13:22:07.331Z,2.50
2022-12-06T13:24:36.580Z,3.50
2022-12-06T13:30:21.475Z,2.53
2022-12-06T13:32:55.307Z,6.32
2022-12-06T13:35:30.664Z,6.22
2022-12-06T13:38:01.510Z,4.72
2022-12-06T13:40:37.454Z,3.30
2022-12-06T13:43:25.639Z,4.15
2022-12-06T13:45:55.095Z,6.03
2022-12-06T13:48:24.834Z,4.57
2022-12-06T13:51:01.936Z,2.63
2022-12-06T13:53:34.113Z,5.00
2022-12-06T13:56:19.533Z,3.75
2022-12-06T14:01:41.900Z,5.05
2022-12-06T14:04:24.028Z,5.00
2022-12-06T14:06:53.353Z,8.63
2022-12-06T14:09:20.436Z,8.18
2022-12-06T14:11:47.498Z,11.63
2022-12-06T14:14:16.789Z,22.90
2022-12-06T14:16:48.420Z,3.60
2022-12-06T14:19:45.645Z,3.70
2022-12-06T14:22:25.121Z,22.17
2022-12-06T14:25:07.724Z,5.55
2022-12-06T14:27:44.317Z,12.52
2022-12-06T14:30:14.706Z,3.10
2022-12-06T14:32:49.810Z,6.75
2022-12-06T14:35:22.874Z,11.65
2022-12-06T14:37:58.210Z,7.95
2022-12-06T14:41:00.669Z,49.13
2022-12-06T14:43:30.448Z,12.43
2022-12-06T14:45:59.643Z,11.73
2022-12-06T14:48:26.783Z,7.43
2022-12-06T14:50:57.474Z,8.80
2022-12-06T14:53:36.441Z,6.18
2022-12-06T14:56:29.327Z,11.23
2022-12-06T14:58:59.572Z,10.13
2022-12-06T15:01:29.035Z,13.15
2022-12-06T15:04:01.733Z,17.85
2022-12-06T15:06:32.468Z,18.02
2022-12-06T15:08:59.205Z,14.93
2022-12-06T15:11:51.016Z,22.63
2022-12-06T15:14:26.668Z,28.08
2022-12-06T15:17:02.817Z,26.42
2022-12-06T15:19:36.133Z,32.60
2022-12-06T15:22:04.380Z,30.05
2022-12-06T15:24:31.496Z,22.08
2022-12-06T15:26:58.124Z,27.65
2022-12-06T15:29:24.853Z,18.52
2022-12-06T15:31:53.954Z,18.20
2022-12-06T15:34:22.532Z,36.03
2022-12-06T15:36:59.388Z,20.85
2022-12-06T15:39:36.061Z,27.02
2022-12-06T15:42:02.815Z,41.00
2022-12-06T15:44:29.586Z,38.53
2022-12-06T15:46:56.395Z,48.08
2022-12-06T15:49:27.727Z,52.80
2022-12-06T15:51:54.496Z,54.95
2022-12-06T15:54:24.472Z,63.50
2022-12-06T15:56:52.217Z,26.20
2022-12-06T15:59:19.489Z,30.17
2022-12-06T16:01:51.193Z,35.60
2022-12-06T16:04:23.463Z,50.50
2022-12-06T16:06:51.208Z,55.10
2022-12-06T16:09:19.458Z,55.83
2022-12-06T16:11:46.252Z,49.75
2022-12-06T16:14:13.997Z,52.80
2022-12-06T16:16:43.435Z,52.60
2022-12-06T16:19:10.761Z,77.22
2022-12-06T16:21:51.351Z,59.72
2022-12-06T16:24:18.145Z,72.63
2022-12-06T16:26:45.742Z,72.22
2022-12-06T16:29:25.051Z,61.95
2022-12-06T16:31:53.182Z,55.42
2022-12-06T16:34:20.754Z,62.20
2022-12-06T16:37:00.114Z,62.10
2022-12-06T16:39:30.448Z,60.93
2022-12-06T16:41:57.702Z,61.13
2022-12-06T16:44:24.827Z,59.17
2022-12-06T16:46:52.171Z,63.92
2022-12-06T16:52:15.600Z,59.15
2022-12-06T16:54:43.006Z,62.42
2022-12-06T16:57:13.705Z,64.68
2022-12-06T16:59:42.441Z,62.83
2022-12-06T17:02:31.707Z,57.97
2022-12-06T17:05:01.463Z,56.33
2022-12-06T17:07:29.025Z,61.40
2022-12-06T17:09:55.722Z,61.63
2022-12-06T17:12:22.405Z,60.45
2022-12-06T17:14:49.125Z,55.97
2022-12-06T17:17:17.592Z,60.65
2022-12-06T17:19:44.679Z,58.20
2022-12-06T17:22:12.819Z,53.37
2022-12-06T17:24:39.758Z,61.53
2022-12-06T17:27:08.917Z,47.67
2022-12-06T17:29:36.356Z,52.97
2022-12-06T17:32:02.951Z,50.63
2022-12-06T17:34:29.658Z,50.80
2022-12-06T17:36:57.542Z,48.40
2022-12-06T17:39:24.761Z,48.50
2022-12-06T17:42:10.090Z,57.00
2022-12-06T17:47:03.528Z,68.13
2022-12-06T17:49:30.231Z,69.30
2022-12-06T17:51:57.276Z,70.77
2022-12-06T17:54:24.081Z,62.60
2022-12-06T17:56:53.630Z,39.13
2022-12-06T17:59:23.642Z,37.67
2022-12-06T18:04:37.979Z,34.10
2022-12-06T18:07:04.714Z,43.93
2022-12-06T18:09:31.511Z,40.33
2022-12-06T18:11:58.124Z,46.00
2022-12-06T18:14:24.860Z,60.10
2022-12-06T18:16:51.633Z,57.40
2022-12-06T18:19:20.272Z,56.70
2022-12-06T18:21:48.069Z,71.83
2022-12-06T18:24:22.207Z,75.33
2022-12-06T18:26:51.206Z,65.53
2022-12-06T18:29:20.810Z,59.20
2022-12-06T18:31:47.718Z,62.27
2022-12-06T18:34:14.773Z,62.17
2022-12-06T18:36:42.051Z,58.40
2022-12-06T18:39:15.231Z,60.67
2022-12-06T18:41:43.317Z,63.83
2022-12-06T18:44:11.594Z,80.93
2022-12-06T18:46:39.401Z,71.97
2022-12-06T18:49:06.978Z,76.33
2022-12-06T18:51:35.539Z,49.87
2022-12-06T18:54:05.010Z,40.60
2022-12-06T18:56:33.638Z,42.23
2022-12-06T18:59:02.412Z,56.00
2022-12-06T19:01:32.027Z,61.53
2022-12-06T19:04:01.264Z,65.20
2022-12-06T19:06:31.303Z,64.10
2022-12-06T19:09:03.275Z,65.17
2022-12-06T19:11:30.123Z,58.57
2022-12-06T19:13:59.029Z,52.40
2022-12-06T19:16:30.029Z,52.63
2022-12-06T19:18:58.825Z,42.23
2022-12-06T19:21:26.607Z,35.83
2022-12-06T19:23:57.401Z,29.73
2022-12-06T19:26:26.203Z,42.30
2022-12-06T19:28:53.282Z,32.67
2022-12-06T19:31:23.085Z,34.67
2022-12-06T19:33:51.590Z,36.47
2022-12-06T19:36:23.982Z,45.33
2022-12-06T19:38:58.300Z,54.67
2022-12-06T19:41:25.999Z,45.85
2022-12-06T19:44:11.551Z,44.60
2022-12-06T19:46:38.306Z,53.07
2022-12-06T19:49:06.810Z,48.63
2022-12-06T19:51:41.960Z,50.57
2022-12-06T19:54:10.484Z,52.60
2022-12-06T19:56:38.880Z,50.80
2022-12-06T19:59:11.891Z,52.73
2022-12-06T20:01:46.337Z,54.63
2022-12-06T20:04:20.644Z,50.75
2022-12-06T20:06:47.459Z,59.55
2022-12-06T20:09:14.999Z,63.53
2022-12-06T20:12:02.329Z,40.67
2022-12-06T20:14:40.823Z,36.87
2022-12-06T20:17:16.147Z,39.47
2022-12-06T20:19:45.904Z,35.33
2022-12-06T20:22:14.157Z,38.73
2022-12-06T20:24:41.834Z,33.70
2022-12-06T20:27:08.698Z,36.20
2022-12-06T20:29:36.002Z,41.30
2022-12-06T20:32:03.134Z,39.40
2022-12-06T20:34:34.495Z,39.40
2022-12-06T20:37:03.966Z,39.97
2022-12-06T20:39:33.011Z,40.20
2022-12-06T20:42:01.153Z,44.70
2022-12-06T20:44:27.930Z,39.30
2022-12-06T20:46:54.827Z,36.20
2022-12-06T20:49:21.664Z,37.27
2022-12-06T20:51:52.969Z,37.33
2022-12-06T20:54:21.432Z,38.30
2022-12-06T20:56:51.708Z,39.77
2022-12-06T20:59:19.471Z,46.67
2022-12-06T21:01:47.034Z,41.30
2022-12-06T21:04:15.385Z,40.07
2022-12-06T21:06:42.758Z,43.43
2022-12-06T21:09:10.270Z,46.03
2022-12-06T21:11:37.636Z,53.57
2022-12-06T21:14:05.594Z,76.53
2022-12-06T21:16:33.740Z,49.37
2022-12-06T21:19:05.892Z,44.30
2022-12-06T21:21:35.379Z,38.57
2022-12-06T21:24:03.954Z,41.90
2022-12-06T21:26:31.736Z,36.83
2022-12-06T21:28:58.827Z,36.90
2022-12-06T21:31:30.007Z,36.23
2022-12-06T21:33:57.395Z,34.87
2022-12-06T21:36:24.493Z,32.20
2022-12-06T21:38:51.430Z,28.07
2022-12-06T21:41:18.569Z,35.43
2022-12-06T21:43:45.310Z,35.60
2022-12-06T21:46:15.134Z,31.20
2022-12-06T21:48:42.809Z,33.60
2022-12-06T21:51:11.808Z,33.57
2022-12-06T21:53:39.034Z,32.23
2022-12-06T21:56:14.292Z,32.27
2022-12-06T21:58:41.000Z,29.97
2022-12-06T22:01:30.351Z,30.03
2022-12-06T22:03:59.308Z,33.87
2022-12-06T22:06:26.686Z,51.17
2022-12-06T22:09:01.887Z,34.67
2022-12-06T22:11:30.306Z,38.57
2022-12-06T22:13:58.879Z,69.00
2022-12-06T22:16:26.403Z,57.17
2022-12-06T22:18:55.342Z,45.50
2022-12-06T22:21:25.714Z,47.13
2022-12-06T22:23:52.894Z,53.10
2022-12-06T22:26:22.623Z,48.10
2022-12-06T22:28:50.243Z,42.00
2022-12-06T22:31:22.878Z,34.33
2022-12-06T22:33:51.427Z,32.30
2022-12-06T22:36:20.082Z,34.73
2022-12-06T22:38:52.001Z,31.10
2022-12-06T22:41:19.594Z,35.40
2022-12-06T22:43:46.854Z,38.00
2022-12-06T22:46:15.815Z,44.63
2022-12-06T22:48:43.501Z,40.17
2022-12-06T22:51:12.286Z,45.40
2022-12-06T22:53:39.704Z,52.10
2022-12-06T22:56:06.900Z,51.53
2022-12-06T22:58:33.993Z,36.57
2022-12-06T23:01:21.136Z,30.70
2022-12-06T23:03:50.604Z,24.57
2022-12-06T23:06:19.877Z,39.20
2022-12-06T23:08:47.075Z,46.90
2022-12-06T23:11:18.339Z,45.73
2022-12-06T23:13:45.711Z,37.00
2022-12-06T23:16:15.157Z,44.77
2022-12-06T23:18:42.953Z,54.20
2022-12-06T23:21:15.177Z,66.97
2022-12-06T23:23:46.019Z,44.00
2022-12-06T23:26:15.404Z,37.73
2022-12-06T23:28:42.747Z,32.37
2022-12-06T23:31:13.870Z,32.00
2022-12-06T23:33:42.433Z,38.13
2022-12-06T23:36:18.219Z,40.27
2022-12-06T23:38:45.575Z,46.30
2022-12-06T23:41:15.638Z,40.87
2022-12-06T23:43:43.332Z,32.87
2022-12-06T23:46:22.236Z,26.60
2022-12-06T23:48:50.694Z,25.83
2022-12-06T23:51:20.334Z,25.80
2022-12-06T23:53:57.657Z,28.97
2022-12-06T23:56:26.458Z,26.73
2022-12-06T23:58:53.988Z,31.40
